Time;durP1;ratioP1;P1;durP2;ratioP2;P2;SDS_P1;SDS_P2;PMS_P1;PMS_P2;Temp;Humidity;BMP_temperature;BMP_pressure;BME280_temperature;BME280_humidity;BME280_pressure;Samples;Min_cycle;Max_cycle;Signal;HPM_P1;HPM_P2
2021/08/15 00:02:19;;;;;;;12.85;9.10;;;20.90;99.90;;;;;;4935378;28;20047;-69
2021/08/15 00:04:47;;;;;;;11.85;8.77;;;20.90;99.90;;;;;;4934783;29;20054;-68
2021/08/15 00:07:15;;;;;;;12.38;8.57;;;20.90;99.90;;;;;;4936786;29;20051;-69
2021/08/15 00:09:43;;;;;;;16.15;9.35;;;20.80;99.90;;;;;;4935281;29;20042;-69
2021/08/15 00:12:10;;;;;;;13.43;9.00;;;20.80;99.90;;;;;;4952800;28;20051;-69
2021/08/15 00:14:38;;;;;;;11.70;8.98;;;20.80;99.90;;;;;;4952695;28;20067;-69
2021/08/15 00:17:06;;;;;;;13.63;9.27;;;20.80;99.90;;;;;;4935771;29;20062;-69
2021/08/15 00:19:33;;;;;;;12.52;9.05;;;20.80;99.90;;;;;;4935160;29;20043;-69
2021/08/15 00:22:01;;;;;;;12.82;9.30;;;20.80;99.90;;;;;;4935892;29;20410;-69
2021/08/15 00:24:28;;;;;;;14.90;9.27;;;20.80;99.90;;;;;;4934692;28;20146;-69
2021/08/15 00:26:56;;;;;;;14.95;9.48;;;20.80;99.90;;;;;;4953045;28;20416;-69
2021/08/15 00:29:23;;;;;;;12.48;8.75;;;20.70;99.90;;;;;;4935121;29;20054;-69
2021/08/15 00:31:51;;;;;;;14.27;9.38;;;20.70;99.90;;;;;;4934132;29;20506;-69
2021/08/15 00:34:18;;;;;;;12.18;8.68;;;20.70;99.90;;;;;;4955990;28;20410;-69
2021/08/15 00:36:45;;;;;;;11.32;9.20;;;20.60;99.90;;;;;;4952398;28;20043;-69
2021/08/15 00:39:13;;;;;;;15.05;9.85;;;20.60;99.90;;;;;;4952617;28;20455;-69
2021/08/15 00:41:40;;;;;;;14.90;9.38;;;20.60;99.90;;;;;;4937643;29;20051;-69
2021/08/15 00:44:08;;;;;;;14.68;9.35;;;20.60;99.90;;;;;;4955852;28;20043;-69
2021/08/15 00:46:38;;;;;;;15.05;10.88;;;20.50;99.90;;;;;;4939113;29;20050;-69
2021/08/15 00:49:05;;;;;;;17.17;12.25;;;20.50;99.90;;;;;;4956102;28;20046;-69
2021/08/15 00:51:33;;;;;;;13.25;9.60;;;20.50;99.90;;;;;;4948831;29;20069;-69
2021/08/15 00:54:00;;;;;;;13.60;9.48;;;20.50;99.90;;;;;;4956110;28;20126;-69
2021/08/15 00:56:27;;;;;;;14.73;10.07;;;20.40;99.90;;;;;;4939073;29;20051;-69
2021/08/15 00:58:55;;;;;;;13.10;9.30;;;20.40;99.90;;;;;;4921215;29;20047;-69
2021/08/15 01:01:22;;;;;;;12.00;8.75;;;20.40;99.90;;;;;;4955734;28;20039;-69
2021/08/15 01:03:50;;;;;;;12.40;9.50;;;20.40;99.90;;;;;;4938540;29;20154;-69
2021/08/15 01:06:17;;;;;;;12.30;9.15;;;20.40;99.90;;;;;;4941964;28;20047;-70
2021/08/15 01:08:44;;;;;;;13.18;9.60;;;20.30;99.90;;;;;;4955912;28;20047;-69
2021/08/15 01:11:11;;;;;;;13.15;9.20;;;20.30;99.90;;;;;;4938204;29;20074;-69
2021/08/15 01:13:39;;;;;;;14.32;9.45;;;20.20;99.90;;;;;;4955812;28;20054;-69
2021/08/15 01:16:08;;;;;;;15.00;9.68;;;20.20;99.90;;;;;;4962486;28;20046;-70
2021/08/15 01:18:38;;;;;;;13.57;9.73;;;20.20;99.90;;;;;;4950927;28;20048;-69
2021/08/15 01:21:15;;;;;;;12.75;9.23;;;20.10;99.90;;;;;;4955396;28;20043;-69
2021/08/15 01:23:44;;;;;;;14.02;10.00;;;20.10;99.90;;;;;;4938386;29;20502;-69
2021/08/15 01:26:22;;;;;;;14.48;10.02;;;20.00;99.90;;;;;;4936402;29;20074;-69
2021/08/15 01:28:52;;;;;;;14.90;9.20;;;20.00;99.90;;;;;;4954798;28;20150;-69
2021/08/15 01:31:21;;;;;;;13.73;9.70;;;20.00;99.90;;;;;;4955409;28;20051;-69
2021/08/15 01:33:49;;;;;;;17.98;9.45;;;20.00;99.90;;;;;;4938092;29;20088;-69
2021/08/15 01:36:19;;;;;;;15.52;9.32;;;20.00;99.90;;;;;;4938401;29;20035;-69
2021/08/15 01:38:48;;;;;;;14.18;9.07;;;20.00;99.90;;;;;;4955279;29;20041;-69
2021/08/15 01:41:16;;;;;;;15.15;9.73;;;20.00;99.90;;;;;;4957503;28;20047;-69
2021/08/15 01:43:49;;;;;;;14.70;9.75;;;20.00;99.90;;;;;;4937843;29;20047;-69
2021/08/15 01:46:18;;;;;;;17.48;10.10;;;20.00;99.90;;;;;;4955163;29;20046;-69
2021/08/15 01:48:46;;;;;;;13.25;9.73;;;19.90;99.90;;;;;;4955033;29;20047;-69
2021/08/15 01:51:15;;;;;;;13.52;10.00;;;19.90;99.90;;;;;;4948790;28;20039;-70
2021/08/15 01:53:44;;;;;;;13.55;9.55;;;19.80;99.90;;;;;;4954363;28;20504;-69
2021/08/15 01:56:11;;;;;;;15.43;9.90;;;19.80;99.90;;;;;;4954111;28;20494;-69
2021/08/15 01:58:38;;;;;;;17.58;9.52;;;19.70;99.90;;;;;;4953979;29;20050;-69
2021/08/15 02:01:06;;;;;;;13.45;9.65;;;19.70;99.90;;;;;;4937614;28;20047;-69
2021/08/15 02:03:34;;;;;;;11.52;9.35;;;19.70;99.90;;;;;;4954808;29;20058;-69
2021/08/15 02:06:01;;;;;;;14.32;9.60;;;19.70;99.90;;;;;;4923583;28;20142;-69
2021/08/15 02:08:28;;;;;;;14.88;9.98;;;19.60;99.90;;;;;;4954800;28;20061;-69
2021/08/15 02:10:56;;;;;;;17.55;9.90;;;19.60;99.90;;;;;;4954656;28;20043;-69
2021/08/15 02:13:23;;;;;;;14.23;9.93;;;19.60;99.90;;;;;;4954611;28;20398;-70
2021/08/15 02:15:50;;;;;;;14.30;10.75;;;19.60;99.90;;;;;;4937543;29;20569;-69
2021/08/15 02:18:18;;;;;;;16.05;9.85;;;19.60;99.90;;;;;;4936773;29;20048;-69
2021/08/15 02:20:45;;;;;;;18.15;10.55;;;19.50;99.90;;;;;;4954709;28;20058;-69
2021/08/15 02:23:13;;;;;;;13.85;9.98;;;19.50;99.90;;;;;;4928002;29;20406;-69
2021/08/15 02:25:40;;;;;;;14.25;10.25;;;19.50;99.90;;;;;;4937764;29;20043;-69
2021/08/15 02:28:08;;;;;;;16.10;10.55;;;19.50;99.90;;;;;;4933758;28;20529;-69
2021/08/15 02:30:35;;;;;;;14.43;10.27;;;19.40;99.90;;;;;;4954456;28;20051;-69
2021/08/15 02:33:03;;;;;;;14.52;10.73;;;19.40;99.90;;;;;;4953828;28;20077;-69
2021/08/15 02:35:33;;;;;;;15.38;9.90;;;19.40;99.90;;;;;;4937200;29;20081;-69
2021/08/15 02:38:00;;;;;;;15.55;10.55;;;19.30;99.90;;;;;;4953612;28;20463;-69
2021/08/15 02:40:28;;;;;;;16.23;10.32;;;19.30;99.90;;;;;;4936151;29;20101;-69
2021/08/15 02:42:55;;;;;;;13.65;9.85;;;19.30;99.90;;;;;;4936568;29;20066;-69
2021/08/15 02:45:24;;;;;;;15.90;9.77;;;19.20;99.90;;;;;;4951618;28;20665;-69
2021/08/15 02:47:52;;;;;;;13.55;9.05;;;19.20;99.90;;;;;;4950830;28;20051;-69
2021/08/15 02:50:22;;;;;;;14.57;9.80;;;19.10;99.90;;;;;;4936298;29;20371;-69
2021/08/15 02:52:49;;;;;;;13.43;10.02;;;19.10;99.90;;;;;;4935618;28;20098;-69
2021/08/15 02:55:17;;;;;;;16.27;10.27;;;19.00;99.90;;;;;;4954035;29;20049;-69
2021/08/15 02:57:44;;;;;;;17.20;9.73;;;18.90;99.90;;;;;;4953491;28;20039;-69
2021/08/15 03:00:12;;;;;;;15.60;9.80;;;18.90;99.90;;;;;;4953083;28;20042;-69
2021/08/15 03:02:40;;;;;;;12.15;8.88;;;18.80;99.90;;;;;;4953450;28;20059;-69
2021/08/15 03:05:09;;;;;;;12.10;9.20;;;18.80;99.90;;;;;;4952976;28;20123;-69
2021/08/15 03:07:37;;;;;;;13.20;9.73;;;18.70;99.90;;;;;;4955582;28;20046;-69
2021/08/15 03:10:07;;;;;;;16.50;10.02;;;18.70;99.90;;;;;;4936574;29;20057;-69
2021/08/15 03:12:37;;;;;;;12.48;9.90;;;18.60;99.90;;;;;;4950211;28;20051;-69
2021/08/15 03:15:05;;;;;;;12.80;9.65;;;18.60;99.90;;;;;;4956265;28;20138;-71
2021/08/15 03:17:35;;;;;;;13.43;9.63;;;18.60;99.90;;;;;;4919799;29;20047;-69
2021/08/15 03:20:03;;;;;;;16.23;9.63;;;18.60;99.90;;;;;;4952361;29;20047;-69
2021/08/15 03:22:31;;;;;;;15.25;9.43;;;18.50;99.90;;;;;;4952977;28;20133;-69
2021/08/15 03:24:59;;;;;;;12.85;9.98;;;18.50;99.90;;;;;;4952507;28;20125;-69
2021/08/15 03:27:26;;;;;;;15.00;10.20;;;18.50;99.90;;;;;;4953042;28;20047;-69
2021/08/15 03:29:53;;;;;;;12.45;9.57;;;18.50;99.90;;;;;;4950897;28;20047;-69
2021/08/15 03:32:21;;;;;;;16.05;9.95;;;18.40;99.90;;;;;;4952945;28;20046;-69
2021/08/15 03:34:48;;;;;;;14.38;10.57;;;18.40;99.90;;;;;;4953112;29;20121;-69
2021/08/15 03:37:16;;;;;;;14.38;10.57;;;18.40;99.90;;;;;;4942969;29;20457;-69
2021/08/15 03:39:44;;;;;;;14.00;10.68;;;18.30;99.90;;;;;;4938795;28;20035;-69
2021/08/15 03:42:11;;;;;;;14.25;10.52;;;18.30;99.90;;;;;;4955016;28;20053;-69
2021/08/15 03:44:38;;;;;;;15.25;10.40;;;18.30;99.90;;;;;;4935509;29;20051;-69
2021/08/15 03:47:06;;;;;;;16.00;10.75;;;18.30;99.90;;;;;;4952055;28;20495;-69
2021/08/15 03:49:33;;;;;;;13.23;9.93;;;18.30;99.90;;;;;;4964514;28;20070;-70
2021/08/15 03:52:00;;;;;;;14.32;10.10;;;18.20;99.90;;;;;;4934337;29;20047;-69
2021/08/15 03:54:27;;;;;;;14.20;10.23;;;18.20;99.90;;;;;;4952599;28;20059;-69
2021/08/15 03:56:55;;;;;;;13.43;10.13;;;18.20;99.90;;;;;;4935382;29;20111;-69
2021/08/15 03:59:22;;;;;;;14.27;9.75;;;18.20;99.90;;;;;;4951819;29;20054;-69
2021/08/15 04:01:50;;;;;;;14.65;9.32;;;18.10;99.90;;;;;;4934090;29;20047;-69
2021/08/15 04:04:17;;;;;;;15.07;10.07;;;18.10;99.90;;;;;;4920289;29;20059;-69
2021/08/15 04:06:45;;;;;;;15.38;9.80;;;18.10;99.90;;;;;;4953720;28;20469;-69
2021/08/15 04:09:12;;;;;;;12.57;9.05;;;18.10;99.90;;;;;;4957634;28;20572;-70
2021/08/15 04:11:40;;;;;;;12.73;9.52;;;18.00;99.90;;;;;;4936876;29;20049;-69
2021/08/15 04:14:07;;;;;;;13.45;10.13;;;18.10;99.90;;;;;;4951586;29;20054;-69
2021/08/15 04:16:35;;;;;;;13.30;9.57;;;18.10;99.90;;;;;;4935866;29;20106;-69
2021/08/15 04:19:02;;;;;;;12.70;9.77;;;18.10;99.90;;;;;;4956494;29;20704;-69
2021/08/15 04:21:30;;;;;;;15.75;10.02;;;18.10;99.90;;;;;;4958891;28;20051;-69
2021/08/15 04:23:57;;;;;;;12.95;9.73;;;18.10;99.90;;;;;;4953835;28;20071;-69
2021/08/15 04:26:25;;;;;;;17.10;10.93;;;18.20;99.90;;;;;;4964739;28;20047;-69
2021/08/15 04:28:53;;;;;;;15.82;10.20;;;18.30;99.90;;;;;;4954682;28;20039;-69
2021/08/15 04:31:20;;;;;;;12.98;8.80;;;18.30;99.90;;;;;;4939004;28;20099;-69
2021/08/15 04:33:48;;;;;;;12.30;9.48;;;18.40;99.90;;;;;;4955012;28;20075;-69
2021/08/15 04:36:15;;;;;;;14.98;9.63;;;18.40;99.90;;;;;;4963065;28;20032;-69
2021/08/15 04:38:42;;;;;;;15.25;9.43;;;18.50;99.90;;;;;;4954469;28;20406;-69
2021/08/15 04:41:10;;;;;;;12.15;9.82;;;18.50;99.90;;;;;;4940147;29;20046;-69
2021/08/15 04:43:37;;;;;;;15.68;9.30;;;18.60;99.90;;;;;;4940024;29;20113;-69
2021/08/15 04:46:04;;;;;;;13.68;9.30;;;18.60;99.90;;;;;;4954489;28;20063;-69
2021/08/15 04:48:32;;;;;;;12.73;9.38;;;18.70;99.90;;;;;;4965725;28;20051;-69
2021/08/15 04:50:59;;;;;;;15.88;10.48;;;18.80;99.90;;;;;;4954699;28;20142;-69
2021/08/15 04:53:28;;;;;;;13.15;9.68;;;18.80;99.90;;;;;;4922520;29;20094;-69
2021/08/15 04:55:55;;;;;;;13.50;8.98;;;18.90;99.90;;;;;;4950783;28;20116;-69
2021/08/15 04:58:22;;;;;;;11.45;8.57;;;18.90;99.90;;;;;;4944712;28;20039;-69
2021/08/15 05:00:49;;;;;;;13.32;9.18;;;19.00;99.90;;;;;;4960870;28;20040;-69
2021/08/15 05:03:17;;;;;;;11.95;8.88;;;19.00;99.90;;;;;;4943926;29;20055;-69
2021/08/15 05:05:45;;;;;;;12.45;9.40;;;19.00;99.90;;;;;;4956425;28;20117;-69
2021/08/15 05:08:12;;;;;;;12.13;9.48;;;19.00;99.90;;;;;;4954816;28;20039;-69
2021/08/15 05:10:41;;;;;;;13.98;9.65;;;19.10;99.90;;;;;;4959936;28;20051;-69
2021/08/15 05:13:09;;;;;;;14.80;10.60;;;19.10;99.90;;;;;;4957206;28;20047;-69
2021/08/15 05:15:36;;;;;;;12.45;9.60;;;19.20;99.90;;;;;;4938541;28;20154;-69
2021/08/15 05:18:04;;;;;;;12.15;8.98;;;19.20;99.90;;;;;;4953341;28;20042;-69
2021/08/15 05:20:31;;;;;;;13.15;8.98;;;19.20;99.90;;;;;;4938979;29;20047;-69
2021/08/15 05:22:58;;;;;;;13.55;9.57;;;19.30;99.90;;;;;;4946560;28;20495;-69
2021/08/15 05:25:26;;;;;;;11.07;8.88;;;19.40;99.90;;;;;;4961763;28;20126;-69
2021/08/15 05:27:54;;;;;;;12.20;9.15;;;19.40;99.90;;;;;;4936512;29;20436;-69
2021/08/15 05:30:22;;;;;;;10.70;8.35;;;19.40;99.90;;;;;;4943842;28;20515;-69
2021/08/15 05:32:49;;;;;;;11.88;8.27;;;19.50;99.90;;;;;;4962208;28;20039;-69
2021/08/15 05:35:17;;;;;;;11.20;8.50;;;19.60;99.90;;;;;;4961481;28;20098;-69
2021/08/15 05:37:44;;;;;;;14.35;9.55;;;19.70;99.90;;;;;;4954603;28;20541;-69
2021/08/15 05:40:12;;;;;;;15.13;10.25;;;19.80;99.90;;;;;;4954424;28;20038;-69
2021/08/15 05:42:40;;;;;;;13.35;9.85;;;19.90;99.90;;;;;;4937395;28;20047;-69
2021/08/15 05:45:08;;;;;;;12.48;10.23;;;20.00;99.90;;;;;;4952110;28;20047;-69
2021/08/15 05:47:36;;;;;;;13.57;10.32;;;20.10;99.90;;;;;;4954001;28;20057;-69
2021/08/15 05:50:04;;;;;;;12.35;9.75;;;20.20;99.90;;;;;;4954407;28;20127;-69
2021/08/15 05:52:32;;;;;;;14.95;10.90;;;20.30;99.90;;;;;;4955256;28;20051;-69
2021/08/15 05:55:01;;;;;;;15.15;10.52;;;20.40;99.90;;;;;;4954934;28;20070;-69
2021/08/15 05:57:28;;;;;;;15.88;11.70;;;20.50;99.90;;;;;;4943494;28;20051;-69
2021/08/15 05:59:55;;;;;;;14.68;11.15;;;20.60;99.90;;;;;;4950142;28;20054;-69
2021/08/15 06:02:22;;;;;;;13.88;10.82;;;20.60;99.90;;;;;;4952558;28;20050;-69
2021/08/15 06:04:50;;;;;;;16.15;11.60;;;20.70;99.90;;;;;;4919294;28;20055;-69
2021/08/15 06:07:17;;;;;;;17.60;11.60;;;20.70;99.90;;;;;;4955480;28;20086;-69
2021/08/15 06:09:44;;;;;;;17.58;12.32;;;20.80;99.90;;;;;;4954476;28;20050;-69
2021/08/15 06:12:12;;;;;;;13.75;10.90;;;20.90;99.90;;;;;;4954131;28;20048;-69
2021/08/15 06:14:39;;;;;;;15.27;10.93;;;20.90;99.90;;;;;;4944440;28;20435;-69
2021/08/15 06:17:06;;;;;;;15.75;10.32;;;21.00;99.90;;;;;;4939884;28;20036;-69
2021/08/15 06:19:34;;;;;;;14.25;11.15;;;21.10;99.90;;;;;;4938234;29;20471;-69
2021/08/15 06:22:02;;;;;;;15.05;11.05;;;21.20;99.90;;;;;;4938929;28;20055;-69
2021/08/15 06:24:29;;;;;;;16.58;11.55;;;21.20;99.90;;;;;;4944375;28;20122;-69
2021/08/15 06:26:56;;;;;;;16.60;12.07;;;21.30;99.90;;;;;;4935966;28;20040;-69
2021/08/15 06:29:24;;;;;;;15.57;12.45;;;21.40;99.90;;;;;;4936386;29;20110;-69
2021/08/15 06:31:51;;;;;;;14.98;11.93;;;21.60;99.90;;;;;;4945093;28;20059;-69
2021/08/15 06:34:18;;;;;;;17.52;12.63;;;21.60;99.90;;;;;;4942982;28;20711;-68
2021/08/15 06:36:46;;;;;;;16.25;12.20;;;21.70;99.90;;;;;;4936908;29;20040;-68
2021/08/15 06:39:13;;;;;;;15.88;11.80;;;21.80;99.90;;;;;;4953713;28;20043;-68
2021/08/15 06:41:41;;;;;;;13.13;10.45;;;21.90;99.90;;;;;;4941696;29;20043;-69
2021/08/15 06:44:08;;;;;;;15.30;11.25;;;22.00;99.90;;;;;;4939205;28;20490;-69
2021/08/15 06:46:35;;;;;;;19.52;14.52;;;22.10;99.90;;;;;;4953763;28;20047;-68
2021/08/15 06:49:03;;;;;;;17.17;13.10;;;22.10;99.90;;;;;;4936596;28;20451;-68
2021/08/15 06:51:31;;;;;;;16.25;13.68;;;22.10;99.90;;;;;;4925048;29;20040;-68
2021/08/15 06:53:58;;;;;;;19.02;13.02;;;22.30;99.90;;;;;;4953716;28;20050;-68
2021/08/15 06:56:26;;;;;;;15.65;12.38;;;22.40;99.90;;;;;;4951781;28;20039;-68
2021/08/15 06:58:53;;;;;;;15.95;12.13;;;22.50;99.90;;;;;;4952595;28;20510;-68
2021/08/15 07:01:21;;;;;;;16.30;11.13;;;22.60;99.90;;;;;;4953633;28;20061;-70
2021/08/15 07:03:49;;;;;;;15.02;11.55;;;22.60;99.90;;;;;;4953849;28;20067;-69
2021/08/15 07:06:16;;;;;;;19.25;12.73;;;22.70;99.90;;;;;;4941031;28;20093;-68
2021/08/15 07:08:43;;;;;;;18.02;12.00;;;22.80;99.90;;;;;;4952980;29;20047;-69
2021/08/15 07:11:11;;;;;;;15.38;11.82;;;22.80;99.90;;;;;;4936309;29;20061;-70
2021/08/15 07:13:39;;;;;;;17.15;12.50;;;22.90;99.90;;;;;;4952055;28;20503;-68
2021/08/15 07:16:06;;;;;;;16.55;10.60;;;23.00;99.90;;;;;;4936160;29;20055;-68
2021/08/15 07:18:34;;;;;;;13.68;11.40;;;23.10;99.90;;;;;;4920079;29;20051;-69
2021/08/15 07:21:02;;;;;;;14.75;10.50;;;23.10;99.90;;;;;;4953366;29;20406;-70
2021/08/15 07:23:30;;;;;;;13.98;11.20;;;23.30;99.90;;;;;;4939077;28;20069;-70
2021/08/15 07:25:58;;;;;;;14.27;11.20;;;23.30;99.90;;;;;;4944108;28;20054;-68
2021/08/15 07:28:26;;;;;;;15.68;12.15;;;23.40;99.90;;;;;;4943461;29;20103;-68
2021/08/15 07:30:53;;;;;;;16.80;12.00;;;23.50;99.90;;;;;;4934903;28;20501;-69
2021/08/15 07:33:20;;;;;;;16.60;11.40;;;23.60;99.90;;;;;;4953228;28;20050;-69
2021/08/15 07:35:48;;;;;;;12.85;10.40;;;23.70;99.90;;;;;;4936166;29;20046;-68
2021/08/15 07:38:15;;;;;;;12.25;10.02;;;23.80;99.90;;;;;;4945520;28;20080;-68
2021/08/15 07:40:42;;;;;;;16.70;11.23;;;23.90;99.90;;;;;;4940698;29;20040;-68
2021/08/15 07:43:10;;;;;;;15.35;10.93;;;24.00;99.90;;;;;;4953062;28;20035;-68
2021/08/15 07:45:38;;;;;;;17.00;11.82;;;24.10;99.90;;;;;;4935783;29;20059;-68
2021/08/15 07:48:05;;;;;;;16.52;11.10;;;24.20;99.90;;;;;;4935487;29;20130;-68
2021/08/15 07:50:36;;;;;;;15.35;11.13;;;24.20;99.90;;;;;;4942529;28;20074;-68
2021/08/15 07:53:23;;;;;;;11.93;8.88;;;24.30;99.90;;;;;;4939440;28;20516;-68
2021/08/15 07:55:55;;;;;;;12.63;9.18;;;24.40;99.90;;;;;;4940189;28;20043;-68
2021/08/15 07:58:23;;;;;;;15.05;10.00;;;24.40;99.90;;;;;;4937351;28;20040;-69
2021/08/15 08:00:50;;;;;;;12.57;9.48;;;24.50;99.90;;;;;;4918842;29;20047;-69
2021/08/15 08:03:19;;;;;;;14.05;10.45;;;24.60;99.90;;;;;;4936467;28;20039;-68
2021/08/15 08:05:49;;;;;;;12.23;9.18;;;24.80;99.90;;;;;;4943541;28;20070;-69
2021/08/15 08:08:16;;;;;;;20.60;10.00;;;24.80;99.90;;;;;;4936746;29;20494;-69
2021/08/15 08:10:53;;;;;;;13.23;8.60;;;25.00;99.90;;;;;;4948721;28;20478;-69
2021/08/15 08:13:22;;;;;;;12.45;9.43;;;25.10;99.90;;;;;;4951354;28;20046;-69
2021/08/15 08:15:50;;;;;;;14.07;9.75;;;25.30;99.90;;;;;;4952489;28;20040;-69
2021/08/15 08:18:18;;;;;;;13.02;9.77;;;25.40;99.90;;;;;;4938472;28;20126;-69
2021/08/15 08:20:45;;;;;;;10.45;9.13;;;25.40;99.90;;;;;;4919082;29;20043;-69
2021/08/15 08:23:15;;;;;;;12.23;9.07;;;25.50;99.90;;;;;;4947656;28;20382;-69
2021/08/15 08:25:44;;;;;;;12.57;9.20;;;25.60;99.90;;;;;;4945433;28;20044;-70
2021/08/15 08:28:13;;;;;;;12.90;8.88;;;25.70;99.90;;;;;;4938483;28;20054;-70
2021/08/15 08:30:41;;;;;;;11.95;8.68;;;25.80;99.90;;;;;;4938377;28;20066;-70
2021/08/15 08:33:09;;;;;;;11.13;8.90;;;25.90;99.90;;;;;;4951823;28;20048;-70
2021/08/15 08:35:36;;;;;;;10.65;8.75;;;25.90;99.90;;;;;;4947990;28;20494;-70
2021/08/15 08:38:03;;;;;;;12.43;8.70;;;25.90;99.90;;;;;;4952697;29;20039;-70
2021/08/15 08:40:31;;;;;;;15.90;9.50;;;26.00;99.90;;;;;;4961117;28;20051;-70
2021/08/15 08:42:59;;;;;;;12.55;9.50;;;26.10;99.90;;;;;;4944954;28;20526;-70
2021/08/15 08:45:29;;;;;;;13.23;9.48;;;26.20;99.90;;;;;;4950544;29;20106;-70
2021/08/15 08:47:56;;;;;;;12.48;9.80;;;26.30;99.90;;;;;;4925221;29;20098;-70
2021/08/15 08:50:23;;;;;;;14.18;8.80;;;26.30;99.90;;;;;;4939318;28;20066;-69
2021/08/15 08:52:51;;;;;;;14.00;9.18;;;26.40;99.90;;;;;;4951733;28;20040;-70
2021/08/15 08:55:19;;;;;;;11.98;9.07;;;26.40;99.90;;;;;;4954742;28;20481;-70
2021/08/15 08:57:47;;;;;;;11.40;8.73;;;26.30;99.90;;;;;;4947661;28;20042;-70
2021/08/15 09:00:15;;;;;;;14.00;9.45;;;26.40;99.90;;;;;;4934196;29;20044;-70
2021/08/15 09:02:42;;;;;;;13.25;8.48;;;26.50;99.90;;;;;;4945623;28;20422;-70
2021/08/15 09:05:11;;;;;;;19.55;9.63;;;26.50;99.90;;;;;;4938094;28;20050;-69
2021/08/15 09:07:41;;;;;;;12.20;9.18;;;26.60;99.90;;;;;;4959436;28;20627;-70
2021/08/15 09:10:11;;;;;;;12.23;9.07;;;26.60;99.90;;;;;;4957240;28;20549;-70
2021/08/15 09:12:44;;;;;;;13.45;8.55;;;26.80;99.90;;;;;;4962040;28;20047;-70
2021/08/15 09:15:21;;;;;;;13.32;8.80;;;27.00;99.90;;;;;;4954691;28;20061;-70
2021/08/15 09:17:49;;;;;;;10.80;8.00;;;27.10;99.90;;;;;;4954190;28;20133;-70
2021/08/15 09:20:36;;;;;;;31.05;24.70;;;27.10;99.90;;;;;;4954687;28;20039;-70
2021/08/15 09:23:27;;;;;;;10.00;7.75;;;27.20;99.90;;;;;;4953848;28;20047;-69
2021/08/15 09:26:17;;;;;;;15.10;7.15;;;27.30;99.90;;;;;;4943069;28;20058;-70
2021/08/15 09:28:50;;;;;;;9.95;7.25;;;27.50;99.90;;;;;;4953531;28;20054;-70
2021/08/15 09:31:28;;;;;;;10.15;7.75;;;27.60;99.90;;;;;;4935179;29;20403;-70
2021/08/15 09:33:58;;;;;;;12.07;8.00;;;27.70;99.90;;;;;;4937306;29;20131;-70
2021/08/15 09:36:34;;;;;;;10.25;7.70;;;27.80;99.90;;;;;;4940384;29;20099;-70
2021/08/15 09:39:04;;;;;;;15.77;8.15;;;27.90;99.90;;;;;;4954359;28;20083;-70
2021/08/15 09:41:38;;;;;;;9.93;7.57;;;28.00;99.90;;;;;;4958309;28;20080;-71
2021/08/15 09:44:20;;;;;;;16.65;7.93;;;28.20;99.90;;;;;;4953626;28;20050;-71
2021/08/15 09:47:02;;;;;;;;;;;28.40;99.90;;;;;;4935038;29;20047;-71
2021/08/15 09:49:36;;;;;;;;;;;28.50;99.90;;;;;;4952381;28;19930;-71
2021/08/15 09:52:03;;;;;;;;;;;28.40;99.90;;;;;;4950798;28;19985;-71
2021/08/15 09:54:32;;;;;;;;;;;28.50;99.90;;;;;;4955329;28;19933;-71
2021/08/15 09:56:59;;;;;;;;;;;28.70;99.90;;;;;;4938321;29;19929;-71
2021/08/15 09:59:33;;;;;;;;;;;28.90;99.90;;;;;;4937345;29;20018;-71
2021/08/15 10:02:00;;;;;;;;;;;29.00;99.90;;;;;;4938134;29;19922;-68
2021/08/15 10:04:28;;;;;;;;;;;29.30;99.90;;;;;;4954429;28;19926;-68
2021/08/15 10:06:56;;;;;;;;;;;29.50;99.90;;;;;;4959845;28;19958;-68
2021/08/15 10:09:24;;;;;;;;;;;29.60;99.90;;;;;;4938029;29;19922;-69
2021/08/15 10:11:52;;;;;;;;;;;29.80;99.90;;;;;;4965311;28;19933;-68
2021/08/15 10:14:19;;;;;;;;;;;30.00;99.90;;;;;;4954344;28;19934;-69
2021/08/15 10:16:47;;;;;;;;;;;30.20;99.90;;;;;;4954545;28;19926;-69
2021/08/15 10:19:16;;;;;;;;;;;30.20;99.90;;;;;;4921944;29;19930;-69
2021/08/15 10:21:44;;;;;;;;;;;30.30;99.90;;;;;;4957660;28;19938;-69
2021/08/15 10:24:13;;;;;;;;;;;30.50;99.90;;;;;;4960514;28;19930;-68
2021/08/15 10:26:41;;;;;;;;;;;30.60;99.90;;;;;;4947542;29;19927;-68
2021/08/15 10:29:28;;;;;;;;;;;30.60;99.90;;;;;;4936484;29;20286;-69
2021/08/15 10:32:14;;;;;;;;;;;30.60;99.90;;;;;;4941158;28;19934;-68
2021/08/15 10:34:50;;;;;;;;;;;30.40;99.90;;;;;;4945683;28;19926;-69
2021/08/15 10:37:26;;;;;;;;;;;30.60;99.90;;;;;;4956592;28;20271;-69
2021/08/15 10:40:07;;;;;;;;;;;30.60;99.90;;;;;;4956430;28;20265;-67
2021/08/15 10:42:37;;;;;;;;;;;30.60;99.90;;;;;;4948345;29;19926;-68
2021/08/15 10:45:08;;;;;;;;;;;30.60;99.90;;;;;;4947417;29;19926;-66
2021/08/15 10:47:41;;;;;;;;;;;30.80;99.90;;;;;;4955859;28;19922;-68
2021/08/15 10:50:09;;;;;;;;;;;30.90;99.90;;;;;;4961006;28;20326;-68
2021/08/15 10:52:37;;;;;;;;;;;30.90;99.90;;;;;;4953833;28;19922;-67
2021/08/15 10:55:11;;;;;;;;;;;31.00;99.90;;;;;;4953773;28;19926;-68
2021/08/15 10:57:50;;;;;;;;;;;31.20;99.90;;;;;;4967063;28;19933;-68
2021/08/15 11:00:30;;;;;;;;;;;31.50;99.90;;;;;;4924662;28;20297;-68
2021/08/15 11:02:58;;;;;;;;;;;31.60;99.90;;;;;;4951805;28;19934;-68
2021/08/15 11:05:35;;;;;;;;;;;31.40;99.90;;;;;;4954369;28;19946;-69
2021/08/15 11:08:03;;;;;;;;;;;31.30;99.90;;;;;;4957754;28;20284;-69
2021/08/15 11:10:49;;;;;;;;;;;31.40;99.90;;;;;;4939163;28;19933;-69
2021/08/15 11:13:21;;;;;;;;;;;31.50;99.90;;;;;;4941335;28;19926;-67
2021/08/15 11:15:49;;;;;;;;;;;31.60;99.90;;;;;;4944872;28;19922;-68
2021/08/15 11:18:18;;;;;;;;;;;31.90;99.90;;;;;;4954311;29;19930;-68
2021/08/15 11:20:51;;;;;;;;;;;32.00;99.90;;;;;;4940752;29;19922;-68
2021/08/15 11:23:19;;;;;;;;;;;32.20;99.90;;;;;;4954130;28;20053;-68
2021/08/15 11:25:47;;;;;;;;;;;32.20;99.90;;;;;;4954893;28;19985;-68
2021/08/15 11:28:16;;;;;;;;;;;32.50;99.90;;;;;;4953785;28;20017;-69
2021/08/15 11:30:43;;;;;;;;;;;32.50;99.90;;;;;;4941337;29;20022;-69
2021/08/15 11:33:11;;;;;;;;;;;32.60;99.90;;;;;;4940553;28;20025;-68
2021/08/15 11:35:45;;;;;;;;;;;32.70;99.90;;;;;;4961583;28;19978;-68
2021/08/15 11:38:14;;;;;;;;;;;32.90;99.90;;;;;;4936799;28;19934;-68
2021/08/15 11:40:47;;;;;;;;;;;33.10;99.90;;;;;;4958145;28;19968;-68
2021/08/15 11:43:15;;;;;;;;;;;33.60;99.90;;;;;;4960325;28;20297;-69
2021/08/15 11:45:44;;;;;;;;;;;33.80;99.90;;;;;;4924427;29;19926;-69
2021/08/15 11:48:19;;;;;;;;;;;34.10;99.90;;;;;;4958728;29;19926;-69
2021/08/15 11:50:50;;;;;;;;;;;33.70;99.90;;;;;;4956794;28;19926;-68
2021/08/15 11:53:18;;;;;;;;;;;33.50;99.90;;;;;;4957153;28;19929;-68
2021/08/15 11:55:45;;;;;;;;;;;33.10;99.90;;;;;;4955673;28;19930;-69
2021/08/15 11:58:15;;;;;;;;;;;33.10;99.90;;;;;;4953232;28;19923;-68
2021/08/15 12:00:42;;;;;;;;;;;33.40;99.90;;;;;;4957026;28;19926;-68
2021/08/15 12:03:13;;;;;;;;;;;33.60;99.90;;;;;;4940156;29;19933;-68
2021/08/15 12:05:41;;;;;;;;;;;33.60;99.90;;;;;;4953178;28;20016;-69
2021/08/15 12:08:10;;;;;;;;;;;34.10;99.90;;;;;;4955605;28;19946;-68
2021/08/15 12:10:39;;;;;;;;;;;34.60;99.90;;;;;;4955418;28;20378;-69
2021/08/15 12:13:09;;;;;;;;;;;35.50;99.40;;;;;;4952686;29;19997;-68
2021/08/15 12:15:36;;;;;;;;;;;36.30;97.90;;;;;;4953890;29;19923;-69
2021/08/15 12:18:04;;;;;;;;;;;36.90;96.50;;;;;;4948411;28;20370;-69
2021/08/15 12:20:40;;;;;;;;;;;37.40;95.90;;;;;;4936055;29;20371;-69
2021/08/15 12:23:08;;;;;;;;;;;37.50;94.40;;;;;;4956842;28;19954;-69
2021/08/15 12:25:35;;;;;;;;;;;36.80;94.20;;;;;;4955560;28;19954;-69
2021/08/15 12:28:12;;;;;;;;;;;36.90;94.00;;;;;;4957999;28;19946;-68
2021/08/15 12:30:40;;;;;;;;;;;36.90;94.20;;;;;;4949626;28;20408;-69
2021/08/15 12:33:24;;;;;;;;;;;37.00;93.40;;;;;;4938917;29;20013;-69
2021/08/15 12:35:51;;;;;;;;;;;36.90;93.40;;;;;;4946030;28;19922;-69
2021/08/15 12:38:26;;;;;;;;;;;37.20;93.10;;;;;;4953822;28;19933;-69
2021/08/15 12:40:53;;;;;;;;;;;37.80;92.10;;;;;;4950959;28;20016;-69
2021/08/15 12:43:24;;;;;;;;;;;37.70;91.30;;;;;;4961020;28;19930;-69
2021/08/15 12:45:53;;;;;;;;;;;38.40;90.80;;;;;;4963094;29;19929;-69
2021/08/15 12:48:29;;;;;;;;;;;38.40;90.00;;;;;;4944942;29;19973;-69
2021/08/15 12:50:58;;;;;;;;;;;37.80;89.80;;;;;;4941446;28;19922;-69
2021/08/15 12:53:30;;;;;;;;;;;37.40;90.10;;;;;;4965867;28;19938;-68
2021/08/15 12:56:12;;;;;;;;;;;37.60;89.20;;;;;;4948247;28;19972;-68
2021/08/15 12:58:39;;;;;;;;;;;37.30;88.90;;;;;;4965150;28;20281;-68
2021/08/15 13:01:06;;;;;;;;;;;37.40;89.20;;;;;;4965754;28;19962;-69
2021/08/15 13:03:34;;;;;;;;;;;38.60;88.10;;;;;;4965756;29;19930;-69
2021/08/15 13:06:03;;;;;;;;;;;38.70;86.60;;;;;;4967419;28;19952;-69
2021/08/15 13:08:31;;;;;;;;;;;38.60;88.00;;;;;;4954821;28;20265;-69